Time;durP1;ratioP1;P1;durP2;ratioP2;P2;SDS_P1;SDS_P2;PMS_P1;PMS_P2;Temp;Humidity;BMP_temperature;BMP_pressure;BME280_temperature;BME280_humidity;BME280_pressure;Samples;Min_cycle;Max_cycle;Signal;HPM_P1;HPM_P2
2022/08/09 00:01:26;;;;;;;4.28;2.75;;;;;;;18.04;66.26;100495.03;5034919;28;20028;-80
2022/08/09 00:03:51;;;;;;;5.82;3.00;;;;;;;18.03;66.36;100494.16;5052779;28;20032;-80
2022/08/09 00:06:16;;;;;;;4.55;2.90;;;;;;;18.05;66.47;100491.44;5052651;28;20048;-80
2022/08/09 00:08:47;;;;;;;6.13;2.83;;;;;;;18.05;66.38;100500.19;5010079;28;20072;-80
2022/08/09 00:11:13;;;;;;;3.40;2.78;;;;;;;18.05;66.42;100496.72;5010374;28;20180;-80
2022/08/09 00:13:38;;;;;;;5.80;2.72;;;;;;;18.02;66.88;100502.19;5010593;28;20037;-80
2022/08/09 00:16:03;;;;;;;4.75;2.90;;;;;;;17.98;66.89;100500.69;5010478;28;20042;-81
2022/08/09 00:18:30;;;;;;;4.65;3.15;;;;;;;18.00;66.93;100504.06;4994178;28;20029;-80
2022/08/09 00:20:56;;;;;;;5.85;2.47;;;;;;;17.95;67.05;100501.75;4994032;28;20517;-80
2022/08/09 00:23:21;;;;;;;4.05;2.85;;;;;;;17.90;67.09;100496.72;5010686;28;20042;-80
2022/08/09 00:25:46;;;;;;;3.28;2.58;;;;;;;17.91;67.41;100503.72;4994238;28;20179;-80
2022/08/09 00:28:12;;;;;;;5.50;2.75;;;;;;;17.87;67.22;100496.94;5010338;28;20498;-80
2022/08/09 00:30:37;;;;;;;4.78;2.55;;;;;;;17.88;66.87;100503.06;5010513;28;20034;-80
2022/08/09 00:33:02;;;;;;;3.17;2.65;;;;;;;17.80;67.06;100477.19;4993552;28;20037;-80
2022/08/09 00:35:28;;;;;;;4.93;3.00;;;;;;;17.86;66.77;100492.59;4993732;28;20038;-80
2022/08/09 00:37:53;;;;;;;3.10;2.55;;;;;;;17.79;67.00;100487.84;4993862;28;20022;-81
2022/08/09 00:40:19;;;;;;;3.17;2.75;;;;;;;17.80;66.96;100495.63;5028960;28;20037;-81
2022/08/09 00:42:44;;;;;;;3.63;2.78;;;;;;;17.78;66.99;100496.66;5034311;28;20029;-81
2022/08/09 00:45:10;;;;;;;5.93;3.60;;;;;;;17.69;66.69;100484.88;5051849;28;20464;-81
2022/08/09 00:47:35;;;;;;;7.07;2.80;;;;;;;17.66;66.83;100485.09;5052262;28;20461;-81
2022/08/09 00:50:01;;;;;;;4.88;2.90;;;;;;;17.65;66.76;100489.50;5052048;28;20378;-81
2022/08/09 00:52:28;;;;;;;4.53;3.13;;;;;;;17.72;66.70;100503.13;5034248;28;20021;-80
2022/08/09 00:54:53;;;;;;;4.05;3.03;;;;;;;17.72;66.54;100503.13;5051876;28;20072;-81
2022/08/09 00:57:19;;;;;;;3.03;2.60;;;;;;;17.67;66.64;100506.06;5033877;28;20468;-81
2022/08/09 00:59:45;;;;;;;3.97;2.80;;;;;;;17.62;66.92;100494.97;5029466;28;20065;-81
2022/08/09 01:02:13;;;;;;;3.83;2.90;;;;;;;17.63;66.87;100503.72;5012822;28;20040;-81
2022/08/09 01:05:19;;;;;;;4.50;3.17;;;;;;;17.65;67.13;100505.31;5028861;28;20073;-81
2022/08/09 01:07:45;;;;;;;5.28;2.95;;;;;;;17.62;67.19;100507.31;5029728;28;20500;-80
2022/08/09 01:10:10;;;;;;;4.20;2.90;;;;;;;17.62;67.32;100510.78;5029290;28;20084;-80
2022/08/09 01:12:48;;;;;;;4.05;2.70;;;;;;;17.58;67.37;100504.00;5029499;28;20120;-80
2022/08/09 01:15:20;;;;;;;3.03;2.58;;;;;;;17.57;67.48;100497.06;5029503;28;20116;-80
2022/08/09 01:17:54;;;;;;;7.25;2.90;;;;;;;17.61;67.73;100509.09;5029260;28;20072;-80
2022/08/09 01:20:38;;;;;;;3.35;2.67;;;;;;;17.63;67.90;100509.00;5029182;28;20370;-80
2022/08/09 01:23:32;;;;;;;4.93;2.72;;;;;;;17.62;68.00;100505.50;5012579;28;20605;-80
2022/08/09 01:26:29;;;;;;;4.25;3.15;;;;;;;17.66;68.22;100512.28;5012674;28;20553;-80
2022/08/09 01:28:55;;;;;;;3.65;2.80;;;;;;;17.60;68.36;100496.00;5029335;28;20041;-80
2022/08/09 01:31:25;;;;;;;6.38;3.20;;;;;;;17.68;68.58;100507.75;5029115;28;20034;-81
2022/08/09 01:33:53;;;;;;;5.47;3.08;;;;;;;17.66;68.78;100512.28;5029390;28;20034;-80
2022/08/09 01:36:26;;;;;;;4.47;3.00;;;;;;;17.61;68.94;100495.94;5015497;28;20484;-80
2022/08/09 01:38:52;;;;;;;4.50;2.97;;;;;;;17.68;69.08;100506.91;5051731;28;20029;-80
2022/08/09 01:41:24;;;;;;;3.60;2.85;;;;;;;17.69;69.30;100512.06;5051653;28;20080;-80
2022/08/09 01:43:53;;;;;;;4.22;3.10;;;;;;;17.72;69.22;100513.69;5051735;28;20107;-80
2022/08/09 01:46:33;;;;;;;4.55;3.20;;;;;;;17.75;69.10;100508.25;5051408;28;20472;-80
2022/08/09 01:49:14;;;;;;;6.90;3.13;;;;;;;17.76;69.00;100503.84;5051512;28;20036;-80
2022/08/09 01:51:44;;;;;;;3.17;2.88;;;;;;;17.85;69.03;100517.25;5051458;28;20029;-80
2022/08/09 01:54:10;;;;;;;7.05;2.83;;;;;;;17.83;69.20;100505.16;5033555;28;20028;-80
2022/08/09 01:56:40;;;;;;;5.72;2.92;;;;;;;17.85;69.26;100508.53;5009086;28;20121;-80
2022/08/09 01:59:14;;;;;;;4.83;2.77;;;;;;;17.92;69.16;100502.75;5009120;28;20125;-82
2022/08/09 02:01:43;;;;;;;5.38;2.60;;;;;;;17.93;69.18;100500.97;5009385;28;20136;-80
2022/08/09 02:04:11;;;;;;;6.10;2.70;;;;;;;18.01;69.22;100509.25;4992518;28;20121;-80
2022/08/09 02:09:25;;;;;;;3.42;2.92;;;;;;;18.05;69.62;100516.00;5009308;28;20037;-80
2022/08/09 02:11:52;;;;;;;4.72;2.80;;;;;;;18.07;69.57;100508.84;5009176;28;20060;-80
2022/08/09 02:14:20;;;;;;;4.68;2.80;;;;;;;18.03;69.79;100503.84;5008946;28;20030;-80
2022/08/09 02:16:47;;;;;;;2.80;2.53;;;;;;;18.08;69.56;100502.63;5010193;28;20046;-80
2022/08/09 02:19:12;;;;;;;3.65;2.85;;;;;;;18.09;69.86;100509.59;5012552;28;20029;-81
2022/08/09 02:21:43;;;;;;;3.75;2.97;;;;;;;18.03;69.53;100491.53;5012687;28;20052;-80
2022/08/09 02:24:13;;;;;;;3.95;2.83;;;;;;;18.05;69.76;100494.06;4996099;28;20022;-80
2022/08/09 02:26:40;;;;;;;4.10;2.60;;;;;;;18.10;69.59;100500.75;5017169;28;20041;-80
2022/08/09 02:29:15;;;;;;;4.28;2.80;;;;;;;18.08;69.73;100489.47;5036579;28;20017;-81
2022/08/09 02:31:43;;;;;;;3.97;2.58;;;;;;;18.13;69.38;100492.63;5055093;28;20039;-81
2022/08/09 02:34:19;;;;;;;3.20;2.50;;;;;;;18.14;69.10;100493.47;5054451;28;20031;-80
2022/08/09 02:36:51;;;;;;;6.45;2.97;;;;;;;18.16;69.19;100491.56;5054695;28;20577;-80
2022/08/09 02:39:29;;;;;;;4.97;2.42;;;;;;;18.20;69.06;100496.59;5054378;28;20021;-80
2022/08/09 02:42:07;;;;;;;5.88;2.72;;;;;;;18.18;68.97;100490.53;5036587;28;20067;-81
2022/08/09 02:44:41;;;;;;;5.20;2.63;;;;;;;18.17;68.26;100485.38;5054759;28;20029;-81
2022/08/09 02:47:10;;;;;;;3.90;2.95;;;;;;;18.21;68.42;100494.78;5054311;28;20028;-81
2022/08/09 02:49:44;;;;;;;3.53;2.53;;;;;;;18.24;68.30;100491.94;5054802;28;20376;-81
2022/08/09 02:52:13;;;;;;;5.60;2.60;;;;;;;18.24;67.97;100491.09;5053940;28;20456;-81
2022/08/09 02:54:41;;;;;;;3.75;2.47;;;;;;;18.22;68.15;100480.66;5054741;28;20029;-80
2022/08/09 02:57:09;;;;;;;4.97;2.45;;;;;;;18.25;68.29;100491.00;5053970;28;20500;-80
2022/08/09 02:59:36;;;;;;;6.18;3.05;;;;;;;18.23;68.17;100486.75;5053751;28;20029;-81
2022/08/09 03:02:04;;;;;;;8.70;2.38;;;;;;;18.27;68.47;100493.53;5036335;28;20051;-81
2022/08/09 03:04:32;;;;;;;6.07;2.42;;;;;;;18.28;68.33;100505.75;5053839;28;20023;-80
2022/08/09 03:06:59;;;;;;;5.75;2.70;;;;;;;18.24;68.55;100494.56;5053780;28;20049;-80
2022/08/09 03:09:25;;;;;;;3.17;2.80;;;;;;;18.27;68.34;100502.28;5036108;28;20116;-80
2022/08/09 03:11:51;;;;;;;3.10;2.30;;;;;;;18.30;68.55;100509.16;5053848;28;20083;-80
2022/08/09 03:14:20;;;;;;;2.50;2.30;;;;;;;18.33;68.47;100527.41;5053618;28;20028;-80
2022/08/09 03:16:46;;;;;;;4.30;2.40;;;;;;;18.31;69.02;100516.97;5053936;28;20029;-80
2022/08/09 03:19:13;;;;;;;3.25;2.35;;;;;;;18.23;69.66;100506.06;5053469;28;20048;-80
2022/08/09 03:21:40;;;;;;;3.95;2.38;;;;;;;18.24;70.85;100509.53;5054082;28;20037;-80
2022/08/09 03:24:06;;;;;;;4.65;2.70;;;;;;;18.29;70.28;100531.22;5035820;28;20033;-80
2022/08/09 03:26:32;;;;;;;4.38;2.17;;;;;;;18.27;70.74;100522.53;5053796;28;20028;-80
2022/08/09 03:28:58;;;;;;;2.67;2.28;;;;;;;18.20;71.80;100520.31;5053319;28;20043;-81
2022/08/09 03:31:26;;;;;;;4.63;2.88;;;;;;;18.18;72.63;100524.81;5053368;28;20472;-80
2022/08/09 03:33:51;;;;;;;3.13;2.20;;;;;;;18.17;73.19;100524.94;5035609;28;20025;-81
2022/08/09 03:36:17;;;;;;;2.97;2.40;;;;;;;18.14;73.41;100522.47;5053716;28;20029;-80
2022/08/09 03:38:43;;;;;;;3.95;2.70;;;;;;;18.10;74.23;100523.63;5053561;28;20096;-80
2022/08/09 03:41:12;;;;;;;4.15;2.47;;;;;;;18.03;74.65;100512.59;5053251;28;20112;-80
2022/08/09 03:43:38;;;;;;;3.97;2.63;;;;;;;18.05;74.91;100523.91;5053483;28;20025;-80
2022/08/09 03:46:03;;;;;;;2.55;2.35;;;;;;;18.00;75.21;100528.66;5053346;28;20040;-80
2022/08/09 03:48:31;;;;;;;4.78;2.60;;;;;;;17.87;75.14;100504.84;5035096;28;20021;-80
2022/08/09 03:50:57;;;;;;;3.75;2.20;;;;;;;17.95;74.89;100526.31;5053329;28;20446;-80
2022/08/09 03:53:24;;;;;;;5.22;2.70;;;;;;;17.95;75.62;100525.47;5035124;28;20036;-80
2022/08/09 03:55:50;;;;;;;2.60;2.40;;;;;;;17.90;76.11;100531.00;5053071;28;20032;-80
2022/08/09 03:58:16;;;;;;;3.30;2.63;;;;;;;17.85;75.38;100522.53;5052875;28;20469;-80
2022/08/09 04:00:43;;;;;;;3.20;2.53;;;;;;;17.89;75.08;100531.09;5053040;28;20036;-80
2022/08/09 04:03:09;;;;;;;3.92;2.45;;;;;;;17.83;74.75;100521.81;5052911;28;20035;-80
2022/08/09 04:05:34;;;;;;;3.25;2.90;;;;;;;17.92;75.03;100528.28;5052980;28;20069;-80
2022/08/09 04:07:59;;;;;;;4.50;2.75;;;;;;;17.89;74.70;100531.09;5053139;28;20536;-80
2022/08/09 04:10:25;;;;;;;3.50;2.70;;;;;;;17.81;75.82;100517.56;5052783;28;20029;-81
2022/08/09 04:12:53;;;;;;;3.38;2.80;;;;;;;17.86;76.66;100523.38;5052734;28;20023;-81
2022/08/09 04:15:21;;;;;;;4.22;3.00;;;;;;;17.88;76.95;100526.78;5052421;28;20028;-81
2022/08/09 04:17:47;;;;;;;3.47;2.42;;;;;;;17.81;76.69;100518.41;5034686;28;20025;-81
2022/08/09 04:20:14;;;;;;;4.03;2.70;;;;;;;17.81;77.64;100528.94;5052787;28;20074;-80
2022/08/09 04:22:40;;;;;;;4.13;2.90;;;;;;;17.89;78.16;100534.56;5052785;28;20438;-80
2022/08/09 04:25:06;;;;;;;3.65;2.85;;;;;;;17.89;78.41;100537.22;5052701;28;20032;-80
2022/08/09 04:27:32;;;;;;;3.03;2.80;;;;;;;17.91;78.27;100540.63;5052308;28;20021;-81
2022/08/09 04:29:58;;;;;;;4.70;2.80;;;;;;;17.94;78.52;100543.03;5052489;28;20035;-81
2022/08/09 04:32:26;;;;;;;4.25;3.35;;;;;;;17.91;78.95;100531.88;5052456;28;20116;-81
2022/08/09 04:34:51;;;;;;;3.50;2.75;;;;;;;17.98;78.79;100542.84;5052313;28;20029;-81
2022/08/09 04:37:17;;;;;;;4.18;2.67;;;;;;;17.93;78.40;100532.59;5052205;28;20036;-80
2022/08/09 04:39:42;;;;;;;4.50;3.00;;;;;;;18.00;77.92;100544.47;5051620;28;20028;-81
2022/08/09 04:42:07;;;;;;;4.80;2.88;;;;;;;18.04;78.28;100545.97;5052204;28;20025;-81
2022/08/09 04:44:33;;;;;;;3.60;2.95;;;;;;;18.07;78.50;100545.75;5051871;28;20074;-80
2022/08/09 04:46:58;;;;;;;3.05;2.72;;;;;;;18.04;78.52;100538.06;5052121;28;20372;-80
2022/08/09 04:49:24;;;;;;;5.38;2.97;;;;;;;18.02;78.45;100536.44;5051845;28;20017;-80
2022/08/09 04:51:49;;;;;;;3.83;2.97;;;;;;;18.05;78.74;100536.25;5052095;28;20025;-81
2022/08/09 04:54:14;;;;;;;4.35;3.00;;;;;;;18.13;78.57;100539.25;5052002;28;20170;-81
2022/08/09 04:56:40;;;;;;;4.20;2.88;;;;;;;18.22;78.71;100543.09;5052026;28;20076;-81
2022/08/09 04:59:05;;;;;;;4.72;2.72;;;;;;;18.32;79.31;100552.09;5052085;28;20434;-80
2022/08/09 05:01:30;;;;;;;4.65;2.70;;;;;;;18.36;78.98;100533.31;5051727;28;20029;-81
2022/08/09 05:03:56;;;;;;;6.95;3.10;;;;;;;18.46;78.75;100546.78;5034167;28;20035;-81
2022/08/09 05:06:21;;;;;;;7.63;3.28;;;;;;;18.50;79.62;100544.75;5033721;28;20130;-81
2022/08/09 05:08:46;;;;;;;5.88;2.92;;;;;;;18.57;80.29;100562.75;5051915;28;20021;-81
2022/08/09 05:11:12;;;;;;;6.32;3.55;;;;;;;18.60;81.37;100566.97;5051921;28;20067;-82
2022/08/09 05:13:39;;;;;;;12.05;3.63;;;;;;;18.57;80.80;100553.97;5051832;28;20029;-82
2022/08/09 05:16:06;;;;;;;7.50;3.30;;;;;;;18.68;80.93;100559.41;5051844;28;20044;-82
2022/08/09 05:18:32;;;;;;;7.43;3.38;;;;;;;18.65;80.16;100554.31;5033825;28;20028;-81
2022/08/09 05:21:01;;;;;;;5.85;3.00;;;;;;;18.68;78.81;100573.44;5033929;28;20025;-81
2022/08/09 05:23:26;;;;;;;10.75;3.42;;;;;;;18.67;78.25;100565.63;5051624;28;20411;-81
2022/08/09 05:25:52;;;;;;;4.93;3.35;;;;;;;18.75;77.49;100573.94;5051758;28;20116;-81
2022/08/09 05:28:18;;;;;;;4.85;3.35;;;;;;;18.72;78.00;100571.50;5051395;28;20061;-81
2022/08/09 05:30:44;;;;;;;3.72;3.13;;;;;;;18.71;77.66;100572.44;5051533;28;20406;-81
2022/08/09 05:33:09;;;;;;;4.45;2.70;;;;;;;18.76;77.68;100578.25;5051609;28;20029;-82
2022/08/09 05:35:35;;;;;;;3.83;3.08;;;;;;;18.78;78.22;100586.91;5033507;28;20049;-82
2022/08/09 05:38:00;;;;;;;5.65;3.13;;;;;;;18.82;78.57;100590.19;5051669;28;20075;-81
2022/08/09 05:40:27;;;;;;;6.47;3.00;;;;;;;18.78;80.01;100581.63;5051662;28;20055;-81
2022/08/09 05:42:53;;;;;;;4.15;3.50;;;;;;;18.88;80.30;100589.81;5033622;28;20029;-81
2022/08/09 05:45:18;;;;;;;3.70;3.13;;;;;;;18.95;79.85;100585.78;5051504;28;20021;-81
2022/08/09 05:47:44;;;;;;;4.97;3.28;;;;;;;18.99;79.52;100586.44;5051670;28;20025;-81
2022/08/09 05:50:09;;;;;;;4.72;3.50;;;;;;;19.09;79.12;100596.28;5051759;28;20366;-81
2022/08/09 05:52:35;;;;;;;4.97;3.70;;;;;;;19.09;79.31;100582.25;5037313;28;20064;-81
2022/08/09 05:55:00;;;;;;;3.55;3.22;;;;;;;19.12;79.30;100584.66;5055478;28;20025;-81
2022/08/09 05:57:26;;;;;;;6.13;3.60;;;;;;;19.18;78.14;100590.38;5037091;28;20498;-81
2022/08/09 05:59:51;;;;;;;3.30;3.00;;;;;;;19.17;77.09;100585.19;5037603;28;20045;-80
2022/08/09 06:02:16;;;;;;;4.78;2.85;;;;;;;19.20;77.10;100580.56;5037044;28;20491;-81
2022/08/09 06:04:42;;;;;;;6.20;3.33;;;;;;;19.25;76.90;100585.53;5037288;28;20037;-81
2022/08/09 06:07:07;;;;;;;3.65;3.10;;;;;;;19.28;75.90;100592.41;5037348;28;20159;-80
2022/08/09 06:09:32;;;;;;;6.07;3.40;;;;;;;19.29;74.61;100597.56;5036944;28;20029;-81
2022/08/09 06:11:58;;;;;;;6.78;3.25;;;;;;;19.08;73.47;100562.88;5054903;28;20354;-81
2022/08/09 06:14:23;;;;;;;5.50;3.17;;;;;;;19.18;72.71;100593.03;5036819;28;20120;-80
2022/08/09 06:16:49;;;;;;;3.85;3.10;;;;;;;19.14;73.45;100588.91;5055249;28;20020;-81
2022/08/09 06:19:14;;;;;;;5.82;3.50;;;;;;;19.18;73.50;100608.88;5037118;28;20037;-80
2022/08/09 06:21:40;;;;;;;5.15;3.20;;;;;;;19.20;74.12;100583.19;5054618;28;20078;-81
2022/08/09 06:24:06;;;;;;;5.28;3.45;;;;;;;19.35;74.00;100593.69;5054861;28;20028;-80
2022/08/09 06:26:33;;;;;;;4.97;3.42;;;;;;;19.38;74.13;100599.59;5054635;28;20032;-80
2022/08/09 06:28:58;;;;;;;5.25;3.08;;;;;;;19.41;73.88;100587.97;5054731;28;20025;-81
2022/08/09 06:31:24;;;;;;;4.72;3.13;;;;;;;19.44;73.63;100600.97;5036793;28;20028;-81
2022/08/09 06:33:49;;;;;;;4.28;3.10;;;;;;;19.52;73.29;100593.38;5036964;28;20061;-81
2022/08/09 06:36:14;;;;;;;4.53;3.17;;;;;;;19.56;73.28;100597.50;5054773;28;20380;-81
2022/08/09 06:38:40;;;;;;;7.15;3.75;;;;;;;19.57;73.66;100582.47;5054668;28;20061;-81
2022/08/09 06:41:05;;;;;;;3.83;3.42;;;;;;;19.57;72.99;100574.56;5054902;28;20075;-81
2022/08/09 06:43:31;;;;;;;8.48;3.83;;;;;;;19.72;73.15;100601.72;5054048;28;20029;-81
2022/08/09 06:45:56;;;;;;;6.88;3.55;;;;;;;19.71;73.03;100595.59;5054921;28;20506;-81
2022/08/09 06:48:22;;;;;;;4.57;3.00;;;;;;;19.81;73.02;100601.13;5054461;28;20037;-81
2022/08/09 06:50:47;;;;;;;4.05;3.30;;;;;;;19.82;72.90;100597.50;5036625;28;20021;-81
2022/08/09 06:53:12;;;;;;;4.53;3.05;;;;;;;19.81;71.79;100593.19;5054282;28;20037;-81
2022/08/09 06:55:38;;;;;;;4.95;3.40;;;;;;;19.80;72.11;100584.38;5036002;28;20128;-81
2022/08/09 06:58:03;;;;;;;7.32;3.10;;;;;;;19.89;71.95;100601.44;5054095;28;20052;-81
2022/08/09 07:00:30;;;;;;;4.63;3.10;;;;;;;19.83;71.26;100583.34;5053930;28;20033;-80
2022/08/09 07:02:56;;;;;;;7.93;3.50;;;;;;;19.92;69.88;100603.84;5053504;28;20029;-80
2022/08/09 07:05:21;;;;;;;4.57;3.05;;;;;;;19.92;70.10;100609.13;5053633;28;20055;-80
2022/08/09 07:07:47;;;;;;;7.63;3.60;;;;;;;19.95;69.20;100616.84;5054174;28;20029;-79
2022/08/09 07:10:13;;;;;;;6.95;3.67;;;;;;;19.93;68.55;100622.25;5054070;28;20040;-80
2022/08/09 07:12:38;;;;;;;5.93;3.30;;;;;;;19.89;69.60;100623.41;5035718;28;20067;-80
2022/08/09 07:15:04;;;;;;;6.68;3.60;;;;;;;19.90;70.77;100614.53;5054001;28;20048;-80
2022/08/09 07:17:30;;;;;;;4.93;3.25;;;;;;;19.92;69.47;100627.63;5053736;28;20033;-80
2022/08/09 07:19:55;;;;;;;6.88;3.22;;;;;;;19.85;68.68;100623.75;5052537;28;20023;-81
2022/08/09 07:22:22;;;;;;;6.20;3.20;;;;;;;19.85;69.11;100624.59;5034339;28;20049;-83
2022/08/09 07:24:47;;;;;;;7.03;3.60;;;;;;;19.77;68.90;100621.63;5034335;28;20029;-83
2022/08/09 07:27:12;;;;;;;3.65;3.15;;;;;;;19.90;69.44;100634.84;5034387;28;20029;-82
2022/08/09 07:29:38;;;;;;;5.63;3.38;;;;;;;19.88;69.09;100636.72;5052273;28;20166;-82
2022/08/09 07:32:04;;;;;;;6.80;3.88;;;;;;;19.80;69.14;100633.75;5034352;28;20033;-82
2022/08/09 07:34:30;;;;;;;4.72;3.38;;;;;;;19.89;69.87;100641.94;5051869;28;20477;-82
2022/08/09 07:36:55;;;;;;;6.72;3.40;;;;;;;19.91;70.02;100641.81;5052152;28;20082;-83
2022/08/09 07:39:21;;;;;;;4.38;3.30;;;;;;;19.92;70.12;100640.84;5034079;28;20028;-82
2022/08/09 07:41:47;;;;;;;9.13;3.75;;;;;;;19.89;70.20;100641.94;5051962;28;20455;-82
2022/08/09 07:44:12;;;;;;;5.90;3.88;;;;;;;19.98;70.44;100642.25;5034551;28;20021;-82
2022/08/09 07:46:38;;;;;;;4.47;3.10;;;;;;;20.07;71.02;100641.59;5052002;28;20067;-83
2022/08/09 07:49:03;;;;;;;4.57;3.35;;;;;;;20.06;70.24;100640.75;5052152;28;20033;-83
2022/08/09 07:51:28;;;;;;;4.60;3.20;;;;;;;20.09;70.53;100637.03;5033572;28;20100;-82
2022/08/09 07:53:54;;;;;;;8.45;3.47;;;;;;;20.12;69.68;100647.38;5051918;28;20032;-82
2022/08/09 07:56:19;;;;;;;5.57;3.33;;;;;;;20.08;69.16;100630.88;5051708;28;20021;-82
2022/08/09 07:58:44;;;;;;;7.70;3.53;;;;;;;20.12;69.52;100642.09;5051455;28;20459;-83
2022/08/09 08:01:10;;;;;;;4.85;3.65;;;;;;;20.21;69.70;100651.19;5033880;28;20388;-83
2022/08/09 08:03:36;;;;;;;4.20;3.50;;;;;;;20.24;69.34;100650.97;5034798;28;20017;-83
2022/08/09 08:06:02;;;;;;;6.95;4.22;;;;;;;20.30;69.42;100659.31;5034502;28;20049;-83
2022/08/09 08:08:27;;;;;;;5.20;3.63;;;;;;;20.34;69.31;100647.53;5051224;28;20036;-83
2022/08/09 08:10:52;;;;;;;4.07;3.42;;;;;;;20.29;67.92;100652.31;5052140;28;20426;-82
2022/08/09 08:13:18;;;;;;;7.57;3.35;;;;;;;20.32;67.90;100654.75;5051646;28;20025;-83
2022/08/09 08:15:44;;;;;;;5.57;3.75;;;;;;;20.32;67.01;100653.91;5027847;28;20038;-83
2022/08/09 08:18:09;;;;;;;5.10;3.40;;;;;;;20.39;67.49;100649.84;5028835;28;20025;-83
2022/08/09 08:20:35;;;;;;;4.55;3.03;;;;;;;20.48;67.97;100651.00;5028602;28;20718;-83
2022/08/09 08:23:03;;;;;;;4.55;2.97;;;;;;;20.58;67.79;100654.72;5018872;28;20026;-81
2022/08/09 08:25:28;;;;;;;3.45;3.05;;;;;;;20.66;67.52;100645.28;5018229;28;20504;-81
2022/08/09 08:27:54;;;;;;;4.38;3.50;;;;;;;20.88;67.62;100652.47;5019516;28;20149;-81
2022/08/09 08:30:19;;;;;;;5.97;3.30;;;;;;;20.93;68.07;100642.38;5017873;28;20805;-81
2022/08/09 08:32:45;;;;;;;5.35;3.42;;;;;;;21.22;67.79;100657.06;5002421;28;20109;-81
2022/08/09 08:35:10;;;;;;;5.93;3.65;;;;;;;21.41;66.88;100663.56;5018770;28;20164;-81
2022/08/09 08:37:35;;;;;;;4.70;3.40;;;;;;;21.37;66.04;100654.16;5018895;28;20029;-80
2022/08/09 08:40:03;;;;;;;6.10;3.25;;;;;;;21.43;65.22;100655.47;5019156;28;20044;-81
2022/08/09 08:42:31;;;;;;;5.55;3.47;;;;;;;21.48;64.28;100671.88;5017471;28;20069;-81
2022/08/09 08:44:58;;;;;;;4.05;3.28;;;;;;;21.53;64.35;100664.44;5019257;28;20033;-81
2022/08/09 08:47:29;;;;;;;4.40;3.00;;;;;;;21.63;64.64;100656.63;5036178;28;20041;-81
2022/08/09 08:49:56;;;;;;;3.42;2.90;;;;;;;21.82;64.71;100656.03;5050827;28;20028;-81
2022/08/09 08:52:24;;;;;;;5.85;3.22;;;;;;;22.00;64.65;100656.41;5032474;28;20017;-82
2022/08/09 08:54:54;;;;;;;4.50;3.20;;;;;;;22.21;64.55;100665.38;5050555;28;20128;-82
2022/08/09 08:57:20;;;;;;;5.45;3.03;;;;;;;22.37;64.24;100665.81;5050823;28;20383;-81
2022/08/09 08:59:45;;;;;;;3.92;2.83;;;;;;;22.33;62.21;100659.09;5050760;28;20028;-81
2022/08/09 09:02:27;;;;;;;4.30;3.20;;;;;;;22.44;62.76;100666.19;5051250;28;20052;-85
2022/08/09 09:04:57;;;;;;;3.80;2.80;;;;;;;22.38;60.75;100666.69;5051358;28;20029;-84
2022/08/09 09:07:24;;;;;;;3.97;3.30;;;;;;;22.39;60.47;100663.06;5051600;28;20078;-84
2022/08/09 09:09:51;;;;;;;3.10;2.65;;;;;;;22.44;61.05;100663.53;5051641;28;20429;-83
2022/08/09 09:12:19;;;;;;;3.70;2.83;;;;;;;22.55;60.72;100657.38;5033386;28;20028;-84
2022/08/09 09:14:46;;;;;;;6.13;3.35;;;;;;;22.72;61.05;100667.47;5033296;28;20116;-84
2022/08/09 09:17:12;;;;;;;4.70;3.13;;;;;;;22.82;60.05;100657.75;5033478;28;20082;-84
2022/08/09 09:19:38;;;;;;;3.60;3.10;;;;;;;23.10;60.35;100664.34;5032958;28;20021;-84
2022/08/09 09:22:09;;;;;;;6.03;3.15;;;;;;;23.33;58.93;100673.03;5033152;28;20036;-84
2022/08/09 09:24:52;;;;;;;5.80;3.05;;;;;;;23.50;58.50;100666.31;5033494;28;20036;-83
2022/08/09 09:27:24;;;;;;;5.82;3.00;;;;;;;23.69;57.75;100664.78;5033498;28;20522;-83
2022/08/09 09:29:50;;;;;;;2.97;2.53;;;;;;;23.93;58.00;100661.81;5033628;28;20116;-81
2022/08/09 09:32:24;;;;;;;7.82;2.83;;;;;;;24.09;55.95;100656.84;5051326;28;20051;-81
2022/08/09 09:35:10;;;;;;;4.10;2.75;;;;;;;24.29;54.77;100660.44;5051574;28;20391;-81
2022/08/09 09:37:37;;;;;;;4.90;2.70;;;;;;;24.34;53.61;100656.38;5051381;28;20583;-81
2022/08/09 09:40:04;;;;;;;3.67;2.50;;;;;;;24.46;52.95;100669.63;5051369;28;20065;-81
2022/08/09 09:42:29;;;;;;;7.53;2.60;;;;;;;24.53;53.90;100663.63;5033218;28;20055;-81
2022/08/09 09:44:59;;;;;;;3.55;2.55;;;;;;;24.44;52.75;100656.47;5051340;28;20549;-81
2022/08/09 09:47:26;;;;;;;4.75;2.72;;;;;;;24.33;53.57;100660.03;5050097;28;20033;-82
2022/08/09 09:49:53;;;;;;;4.97;2.33;;;;;;;24.23;52.34;100671.59;5050281;28;20071;-82
2022/08/09 09:52:19;;;;;;;4.10;2.30;;;;;;;24.04;52.88;100659.91;5050043;28;20117;-82
2022/08/09 09:54:46;;;;;;;4.32;2.70;;;;;;;23.91;53.14;100672.59;5049859;28;20107;-81
2022/08/09 09:57:19;;;;;;;3.83;2.67;;;;;;;23.72;53.79;100656.53;5049784;28;20032;-81
2022/08/09 09:59:46;;;;;;;4.95;2.13;;;;;;;23.65;52.50;100654.41;5047481;28;20056;-81
2022/08/09 10:02:13;;;;;;;4.82;2.78;;;;;;;23.64;54.88;100666.00;5050071;28;20033;-81
2022/08/09 10:04:39;;;;;;;3.35;2.67;;;;;;;23.54;53.85;100656.25;5050606;28;20037;-81
2022/08/09 10:07:05;;;;;;;5.60;2.42;;;;;;;23.60;54.20;100663.72;5051267;28;20017;-81
2022/08/09 10:09:53;;;;;;;4.80;2.50;;;;;;;23.47;51.18;100657.75;5051015;28;20032;-81
2022/08/09 10:12:23;;;;;;;4.68;2.35;;;;;;;23.53;51.58;100671.38;5033563;28;20534;-81
2022/08/09 10:14:49;;;;;;;4.03;2.10;;;;;;;23.47;52.04;100658.59;5033165;28;20044;-81
2022/08/09 10:17:17;;;;;;;4.93;2.00;;;;;;;23.48;52.32;100659.44;5050020;28;20033;-81
2022/08/09 10:19:43;;;;;;;2.58;2.15;;;;;;;23.49;52.44;100663.78;5049666;28;20055;-81
2022/08/09 10:22:08;;;;;;;7.60;2.85;;;;;;;23.46;52.01;100656.06;5050116;28;20065;-81
2022/08/09 10:24:34;;;;;;;2.70;2.30;;;;;;;23.45;52.07;100654.38;5049890;28;20029;-79
2022/08/09 10:27:00;;;;;;;2.30;2.10;;;;;;;23.51;52.62;100652.06;5051225;28;20024;-81
2022/08/09 10:29:26;;;;;;;7.72;3.05;;;;;;;23.48;51.59;100640.84;5051079;28;20036;-82
2022/08/09 10:31:52;;;;;;;3.75;2.30;;;;;;;23.46;51.41;100638.28;5051178;28;20025;-81
2022/08/09 10:34:18;;;;;;;3.67;2.60;;;;;;;23.55;51.55;100639.31;5051472;28;20029;-81
2022/08/09 10:36:48;;;;;;;5.97;2.83;;;;;;;23.61;50.88;100647.63;5032844;28;20119;-81
2022/08/09 10:39:17;;;;;;;4.03;2.60;;;;;;;23.60;50.56;100645.09;5053706;28;20108;-81
2022/08/09 10:41:42;;;;;;;3.08;2.40;;;;;;;23.55;51.96;100637.50;5036301;28;20021;-81
2022/08/09 10:44:09;;;;;;;2.90;2.35;;;;;;;23.52;51.53;100629.81;5053602;28;20103;-81
2022/08/09 10:46:40;;;;;;;4.03;2.58;;;;;;;23.58;51.75;100647.03;5054583;28;20033;-81
2022/08/09 10:49:12;;;;;;;5.25;2.88;;;;;;;23.64;51.24;100636.75;5054361;28;20033;-81
2022/08/09 10:52:12;;;;;;;4.32;2.50;;;;;;;23.73;50.54;100642.28;5036296;28;20043;-81
2022/08/09 10:54:37;;;;;;;3.88;2.42;;;;;;;23.63;50.34;100639.50;5053002;28;20456;-81
2022/08/09 10:57:13;;;;;;;2.55;2.13;;;;;;;23.64;50.98;100635.91;5053958;28;20036;-80
2022/08/09 10:59:41;;;;;;;4.43;2.75;;;;;;;23.76;51.25;100631.34;5053944;28;20029;-80
2022/08/09 11:02:14;;;;;;;6.45;2.35;;;;;;;23.83;50.90;100630.69;5036431;28;20033;-80
2022/08/09 11:04:39;;;;;;;4.07;2.70;;;;;;;23.87;50.60;100628.59;5053703;28;20033;-80
2022/08/09 11:07:04;;;;;;;6.47;2.83;;;;;;;23.84;50.55;100621.72;5036344;28;20381;-80
2022/08/09 11:09:36;;;;;;;4.90;2.97;;;;;;;23.85;49.13;100620.78;5032994;28;20123;-80
2022/08/09 11:12:13;;;;;;;3.53;2.80;;;;;;;23.97;49.36;100620.66;5052030;28;20017;-80
2022/08/09 11:14:47;;;;;;;5.13;2.70;;;;;;;24.12;48.58;100614.84;5050981;28;20057;-80
2022/08/09 11:17:12;;;;;;;4.07;2.20;;;;;;;24.24;45.99;100620.91;5049795;28;20476;-79
2022/08/09 11:19:54;;;;;;;9.60;2.47;;;;;;;24.29;46.45;100617.84;5051845;28;20075;-80
2022/08/09 11:22:21;;;;;;;3.92;2.63;;;;;;;24.22;45.81;100612.19;5052614;28;20028;-80
2022/08/09 11:25:06;;;;;;;4.68;3.30;;;;;;;24.02;46.68;100610.44;5051911;28;20460;-83
2022/08/09 11:27:34;;;;;;;5.53;2.90;;;;;;;24.14;47.50;100612.91;5053213;28;20032;-80
2022/08/09 11:29:59;;;;;;;6.50;2.65;;;;;;;24.19;47.46;100609.84;5053604;28;20048;-79